sensor_id;sensor_type;location;lat;lon;timestamp;P1;durP1;ratioP1;P2;durP2;ratioP2
23543;SDS011;11950;51.230;4.012;2023-04-15T00:00:19;7.70;;;5.22;;
23543;SDS011;11950;51.230;4.012;2023-04-15T00:02:46;8.27;;;5.32;;
23543;SDS011;11950;51.230;4.012;2023-04-15T00:05:12;6.55;;;5.38;;
23543;SDS011;11950;51.230;4.012;2023-04-15T00:07:39;9.20;;;6.25;;
23543;SDS011;11950;51.230;4.012;2023-04-15T00:10:06;7.85;;;6.10;;
23543;SDS011;11950;51.230;4.012;2023-04-15T00:12:32;7.13;;;5.68;;
23543;SDS011;11950;51.230;4.012;2023-04-15T00:14:59;6.78;;;5.38;;
23543;SDS011;11950;51.230;4.012;2023-04-15T00:17:25;5.47;;;4.53;;
23543;SDS011;11950;51.230;4.012;2023-04-15T00:19:52;5.63;;;4.38;;
23543;SDS011;11950;51.230;4.012;2023-04-15T00:22:19;4.22;;;3.83;;
23543;SDS011;11950;51.230;4.012;2023-04-15T00:24:46;2.85;;;2.60;;
23543;SDS011;11950;51.230;4.012;2023-04-15T00:27:12;3.63;;;2.40;;
23543;SDS011;11950;51.230;4.012;2023-04-15T00:29:39;2.40;;;2.13;;
23543;SDS011;11950;51.230;4.012;2023-04-15T00:32:06;2.22;;;2.03;;
23543;SDS011;11950;51.230;4.012;2023-04-15T00:34:32;2.17;;;1.92;;
23543;SDS011;11950;51.230;4.012;2023-04-15T00:36:58;3.15;;;2.17;;
23543;SDS011;11950;51.230;4.012;2023-04-15T00:39:25;2.30;;;2.10;;
23543;SDS011;11950;51.230;4.012;2023-04-15T00:41:52;3.35;;;1.90;;
23543;SDS011;11950;51.230;4.012;2023-04-15T00:44:20;2.40;;;2.20;;
23543;SDS011;11950;51.230;4.012;2023-04-15T00:46:46;2.60;;;2.40;;
23543;SDS011;11950;51.230;4.012;2023-04-15T00:49:15;3.58;;;1.83;;
23543;SDS011;11950;51.230;4.012;2023-04-15T00:51:42;2.20;;;2.03;;
23543;SDS011;11950;51.230;4.012;2023-04-15T00:54:09;2.72;;;1.90;;
23543;SDS011;11950;51.230;4.012;2023-04-15T00:56:36;2.90;;;2.30;;
23543;SDS011;11950;51.230;4.012;2023-04-15T00:59:04;3.65;;;2.15;;
23543;SDS011;11950;51.230;4.012;2023-04-15T01:01:32;2.50;;;2.30;;
23543;SDS011;11950;51.230;4.012;2023-04-15T01:04:00;4.32;;;2.53;;
23543;SDS011;11950;51.230;4.012;2023-04-15T01:06:28;5.38;;;2.10;;
23543;SDS011;11950;51.230;4.012;2023-04-15T01:08:57;2.30;;;1.92;;
23543;SDS011;11950;51.230;4.012;2023-04-15T01:11:24;2.63;;;2.42;;
23543;SDS011;11950;51.230;4.012;2023-04-15T01:13:51;3.78;;;2.20;;
23543;SDS011;11950;51.230;4.012;2023-04-15T01:16:18;5.53;;;2.92;;
23543;SDS011;11950;51.230;4.012;2023-04-15T01:18:46;4.50;;;2.38;;
23543;SDS011;11950;51.230;4.012;2023-04-15T01:21:12;2.80;;;2.20;;
23543;SDS011;11950;51.230;4.012;2023-04-15T01:23:39;2.75;;;1.90;;
23543;SDS011;11950;51.230;4.012;2023-04-15T01:26:06;4.30;;;2.20;;
23543;SDS011;11950;51.230;4.012;2023-04-15T01:28:35;2.35;;;1.90;;
23543;SDS011;11950;51.230;4.012;2023-04-15T01:31:05;2.35;;;2.13;;
23543;SDS011;11950;51.230;4.012;2023-04-15T01:33:36;2.63;;;2.05;;
23543;SDS011;11950;51.230;4.012;2023-04-15T01:36:03;4.40;;;1.75;;
23543;SDS011;11950;51.230;4.012;2023-04-15T01:38:30;2.13;;;1.92;;
23543;SDS011;11950;51.230;4.012;2023-04-15T01:40:57;1.98;;;1.88;;
23543;SDS011;11950;51.230;4.012;2023-04-15T01:43:24;2.95;;;2.15;;
23543;SDS011;11950;51.230;4.012;2023-04-15T01:45:51;3.13;;;2.47;;
23543;SDS011;11950;51.230;4.012;2023-04-15T01:48:17;3.42;;;2.40;;
23543;SDS011;11950;51.230;4.012;2023-04-15T01:50:44;3.03;;;2.30;;
23543;SDS011;11950;51.230;4.012;2023-04-15T01:53:11;3.17;;;2.38;;
23543;SDS011;11950;51.230;4.012;2023-04-15T01:55:37;3.13;;;2.22;;
23543;SDS011;11950;51.230;4.012;2023-04-15T01:58:03;2.75;;;2.03;;
23543;SDS011;11950;51.230;4.012;2023-04-15T02:00:30;4.10;;;2.25;;
23543;SDS011;11950;51.230;4.012;2023-04-15T02:02:58;2.63;;;2.00;;
23543;SDS011;11950;51.230;4.012;2023-04-15T02:05:24;2.60;;;2.40;;
23543;SDS011;11950;51.230;4.012;2023-04-15T02:07:51;1.90;;;1.70;;
23543;SDS011;11950;51.230;4.012;2023-04-15T02:10:18;2.45;;;2.25;;
23543;SDS011;11950;51.230;4.012;2023-04-15T02:12:44;2.60;;;2.10;;
23543;SDS011;11950;51.230;4.012;2023-04-15T02:15:11;3.28;;;2.17;;
23543;SDS011;11950;51.230;4.012;2023-04-15T02:17:37;3.40;;;2.42;;
23543;SDS011;11950;51.230;4.012;2023-04-15T02:20:03;2.88;;;2.47;;
23543;SDS011;11950;51.230;4.012;2023-04-15T02:22:33;2.88;;;2.67;;
23543;SDS011;11950;51.230;4.012;2023-04-15T02:24:59;2.92;;;2.72;;
23543;SDS011;11950;51.230;4.012;2023-04-15T02:27:26;2.78;;;2.55;;
23543;SDS011;11950;51.230;4.012;2023-04-15T02:29:53;4.50;;;2.53;;
23543;SDS011;11950;51.230;4.012;2023-04-15T02:32:19;2.65;;;2.45;;
23543;SDS011;11950;51.230;4.012;2023-04-15T02:34:47;2.80;;;2.58;;
23543;SDS011;11950;51.230;4.012;2023-04-15T02:37:14;3.30;;;2.92;;
23543;SDS011;11950;51.230;4.012;2023-04-15T02:39:40;4.22;;;2.70;;
23543;SDS011;11950;51.230;4.012;2023-04-15T02:42:07;4.65;;;3.58;;
23543;SDS011;11950;51.230;4.012;2023-04-15T02:44:33;3.60;;;3.30;;
23543;SDS011;11950;51.230;4.012;2023-04-15T02:47:02;3.95;;;3.55;;
23543;SDS011;11950;51.230;4.012;2023-04-15T02:49:31;3.92;;;3.40;;
23543;SDS011;11950;51.230;4.012;2023-04-15T02:51:59;5.40;;;3.97;;
23543;SDS011;11950;51.230;4.012;2023-04-15T02:54:25;5.15;;;4.45;;
23543;SDS011;11950;51.230;4.012;2023-04-15T02:56:55;4.93;;;3.95;;
23543;SDS011;11950;51.230;4.012;2023-04-15T02:59:22;5.05;;;4.13;;
23543;SDS011;11950;51.230;4.012;2023-04-15T03:01:48;6.00;;;4.03;;
23543;SDS011;11950;51.230;4.012;2023-04-15T03:04:14;6.25;;;4.80;;
23543;SDS011;11950;51.230;4.012;2023-04-15T03:06:41;5.38;;;4.20;;
23543;SDS011;11950;51.230;4.012;2023-04-15T03:09:08;6.68;;;4.80;;
23543;SDS011;11950;51.230;4.012;2023-04-15T03:11:36;4.97;;;4.47;;
23543;SDS011;11950;51.230;4.012;2023-04-15T03:14:07;5.30;;;4.28;;
23543;SDS011;11950;51.230;4.012;2023-04-15T03:16:36;7.47;;;4.80;;
23543;SDS011;11950;51.230;4.012;2023-04-15T03:19:03;5.22;;;4.28;;
23543;SDS011;11950;51.230;4.012;2023-04-15T03:21:29;4.50;;;4.00;;
23543;SDS011;11950;51.230;4.012;2023-04-15T03:23:56;5.40;;;4.07;;
23543;SDS011;11950;51.230;4.012;2023-04-15T03:26:27;4.63;;;3.90;;
23543;SDS011;11950;51.230;4.012;2023-04-15T03:28:58;7.30;;;4.25;;
23543;SDS011;11950;51.230;4.012;2023-04-15T03:31:25;6.63;;;4.35;;
23543;SDS011;11950;51.230;4.012;2023-04-15T03:33:51;5.63;;;3.85;;
23543;SDS011;11950;51.230;4.012;2023-04-15T03:36:17;7.05;;;4.10;;
23543;SDS011;11950;51.230;4.012;2023-04-15T03:38:44;5.20;;;4.30;;
23543;SDS011;11950;51.230;4.012;2023-04-15T03:41:10;6.85;;;3.75;;
23543;SDS011;11950;51.230;4.012;2023-04-15T03:43:36;5.10;;;4.43;;
23543;SDS011;11950;51.230;4.012;2023-04-15T03:46:03;5.95;;;4.15;;
23543;SDS011;11950;51.230;4.012;2023-04-15T03:48:29;5.28;;;4.57;;
23543;SDS011;11950;51.230;4.012;2023-04-15T03:50:55;6.68;;;4.30;;
23543;SDS011;11950;51.230;4.012;2023-04-15T03:53:22;8.55;;;4.55;;
23543;SDS011;11950;51.230;4.012;2023-04-15T03:55:48;7.60;;;5.00;;
23543;SDS011;11950;51.230;4.012;2023-04-15T03:58:14;9.02;;;4.65;;
23543;SDS011;11950;51.230;4.012;2023-04-15T04:00:41;4.72;;;4.28;;
23543;SDS011;11950;51.230;4.012;2023-04-15T04:03:07;5.32;;;4.55;;
23543;SDS011;11950;51.230;4.012;2023-04-15T04:05:34;6.68;;;4.72;;
23543;SDS011;11950;51.230;4.012;2023-04-15T04:08:03;6.57;;;4.75;;
23543;SDS011;11950;51.230;4.012;2023-04-15T04:10:30;4.93;;;4.25;;
23543;SDS011;11950;51.230;4.012;2023-04-15T04:12:56;6.78;;;5.03;;
23543;SDS011;11950;51.230;4.012;2023-04-15T04:15:22;5.45;;;4.90;;
23543;SDS011;11950;51.230;4.012;2023-04-15T04:17:48;8.77;;;4.78;;
23543;SDS011;11950;51.230;4.012;2023-04-15T04:20:15;6.90;;;4.93;;
23543;SDS011;11950;51.230;4.012;2023-04-15T04:22:41;7.80;;;5.03;;
23543;SDS011;11950;51.230;4.012;2023-04-15T04:25:08;8.80;;;5.25;;
23543;SDS011;11950;51.230;4.012;2023-04-15T04:27:35;6.18;;;4.60;;
23543;SDS011;11950;51.230;4.012;2023-04-15T04:30:01;8.98;;;5.78;;
23543;SDS011;11950;51.230;4.012;2023-04-15T04:32:27;5.50;;;4.85;;
23543;SDS011;11950;51.230;4.012;2023-04-15T04:34:54;6.18;;;4.72;;
23543;SDS011;11950;51.230;4.012;2023-04-15T04:37:20;6.82;;;4.90;;
23543;SDS011;11950;51.230;4.012;2023-04-15T04:39:47;5.90;;;5.32;;
23543;SDS011;11950;51.230;4.012;2023-04-15T04:42:14;8.68;;;5.20;;
23543;SDS011;11950;51.230;4.012;2023-04-15T04:44:40;7.60;;;4.80;;
23543;SDS011;11950;51.230;4.012;2023-04-15T04:47:07;9.10;;;5.30;;
23543;SDS011;11950;51.230;4.012;2023-04-15T04:49:33;7.50;;;5.63;;
23543;SDS011;11950;51.230;4.012;2023-04-15T04:51:59;8.68;;;5.38;;
23543;SDS011;11950;51.230;4.012;2023-04-15T04:54:26;11.02;;;5.55;;
23543;SDS011;11950;51.230;4.012;2023-04-15T04:56:52;9.02;;;5.20;;
23543;SDS011;11950;51.230;4.012;2023-04-15T04:59:18;9.57;;;5.40;;
23543;SDS011;11950;51.230;4.012;2023-04-15T05:01:44;10.90;;;5.40;;
23543;SDS011;11950;51.230;4.012;2023-04-15T05:04:11;12.70;;;5.95;;
23543;SDS011;11950;51.230;4.012;2023-04-15T05:06:37;15.15;;;7.03;;
23543;SDS011;11950;51.230;4.012;2023-04-15T05:09:03;10.25;;;6.32;;
23543;SDS011;11950;51.230;4.012;2023-04-15T05:11:30;10.27;;;6.22;;
23543;SDS011;11950;51.230;4.012;2023-04-15T05:13:56;8.88;;;5.88;;
23543;SDS011;11950;51.230;4.012;2023-04-15T05:16:24;10.45;;;5.25;;
23543;SDS011;11950;51.230;4.012;2023-04-15T05:18:50;8.43;;;6.13;;
23543;SDS011;11950;51.230;4.012;2023-04-15T05:21:17;9.18;;;6.50;;
23543;SDS011;11950;51.230;4.012;2023-04-15T05:23:43;9.20;;;6.18;;
23543;SDS011;11950;51.230;4.012;2023-04-15T05:26:09;9.95;;;6.95;;
23543;SDS011;11950;51.230;4.012;2023-04-15T05:28:36;8.85;;;5.90;;
23543;SDS011;11950;51.230;4.012;2023-04-15T05:31:02;9.40;;;5.97;;
23543;SDS011;11950;51.230;4.012;2023-04-15T05:33:28;8.60;;;5.50;;
23543;SDS011;11950;51.230;4.012;2023-04-15T05:35:55;8.10;;;5.70;;
23543;SDS011;11950;51.230;4.012;2023-04-15T05:38:21;8.25;;;5.30;;
23543;SDS011;11950;51.230;4.012;2023-04-15T05:40:47;6.53;;;5.50;;
23543;SDS011;11950;51.230;4.012;2023-04-15T05:43:13;8.23;;;5.40;;
23543;SDS011;11950;51.230;4.012;2023-04-15T05:45:40;6.85;;;4.85;;
23543;SDS011;11950;51.230;4.012;2023-04-15T05:48:06;7.90;;;5.05;;
23543;SDS011;11950;51.230;4.012;2023-04-15T05:50:32;10.07;;;5.20;;
23543;SDS011;11950;51.230;4.012;2023-04-15T05:52:59;5.55;;;3.53;;
23543;SDS011;11950;51.230;4.012;2023-04-15T05:55:25;6.85;;;3.50;;
23543;SDS011;11950;51.230;4.012;2023-04-15T05:57:52;8.15;;;4.20;;
23543;SDS011;11950;51.230;4.012;2023-04-15T06:00:18;6.50;;;3.50;;
23543;SDS011;11950;51.230;4.012;2023-04-15T06:02:44;8.55;;;4.00;;
23543;SDS011;11950;51.230;4.012;2023-04-15T06:05:11;8.63;;;4.18;;
23543;SDS011;11950;51.230;4.012;2023-04-15T06:07:38;5.43;;;4.13;;
23543;SDS011;11950;51.230;4.012;2023-04-15T06:10:04;6.03;;;3.70;;
23543;SDS011;11950;51.230;4.012;2023-04-15T06:12:31;7.22;;;3.88;;
23543;SDS011;11950;51.230;4.012;2023-04-15T06:14:58;5.85;;;4.10;;
23543;SDS011;11950;51.230;4.012;2023-04-15T06:17:24;7.10;;;4.45;;
23543;SDS011;11950;51.230;4.012;2023-04-15T06:19:50;9.60;;;4.38;;
23543;SDS011;11950;51.230;4.012;2023-04-15T06:22:20;7.50;;;4.70;;
23543;SDS011;11950;51.230;4.012;2023-04-15T06:24:47;6.05;;;4.70;;
23543;SDS011;11950;51.230;4.012;2023-04-15T06:27:17;6.95;;;4.45;;
23543;SDS011;11950;51.230;4.012;2023-04-15T06:29:44;6.90;;;4.53;;
23543;SDS011;11950;51.230;4.012;2023-04-15T06:32:10;5.95;;;4.63;;
23543;SDS011;11950;51.230;4.012;2023-04-15T06:34:37;7.50;;;5.32;;
23543;SDS011;11950;51.230;4.012;2023-04-15T06:37:04;6.93;;;5.20;;
23543;SDS011;11950;51.230;4.012;2023-04-15T06:39:30;9.10;;;5.65;;
23543;SDS011;11950;51.230;4.012;2023-04-15T06:41:57;9.82;;;5.63;;
23543;SDS011;11950;51.230;4.012;2023-04-15T06:44:23;7.53;;;6.03;;
23543;SDS011;11950;51.230;4.012;2023-04-15T06:46:49;14.45;;;8.82;;
23543;SDS011;11950;51.230;4.012;2023-04-15T06:49:15;12.88;;;7.97;;
23543;SDS011;11950;51.230;4.012;2023-04-15T06:51:42;13.20;;;8.82;;
23543;SDS011;11950;51.230;4.012;2023-04-15T06:54:08;13.00;;;9.40;;
23543;SDS011;11950;51.230;4.012;2023-04-15T06:56:34;16.15;;;9.70;;
23543;SDS011;11950;51.230;4.012;2023-04-15T06:59:01;11.52;;;9.43;;
23543;SDS011;11950;51.230;4.012;2023-04-15T07:01:28;14.38;;;9.40;;
23543;SDS011;11950;51.230;4.012;2023-04-15T07:03:54;17.55;;;10.20;;
23543;SDS011;11950;51.230;4.012;2023-04-15T07:06:20;14.30;;;10.65;;
23543;SDS011;11950;51.230;4.012;2023-04-15T07:08:47;14.88;;;10.63;;
23543;SDS011;11950;51.230;4.012;2023-04-15T07:11:13;15.90;;;11.40;;
23543;SDS011;11950;51.230;4.012;2023-04-15T07:13:39;14.35;;;10.93;;
23543;SDS011;11950;51.230;4.012;2023-04-15T07:16:05;13.68;;;11.52;;
23543;SDS011;11950;51.230;4.012;2023-04-15T07:18:32;16.13;;;10.95;;
23543;SDS011;11950;51.230;4.012;2023-04-15T07:20:58;14.75;;;10.98;;
23543;SDS011;11950;51.230;4.012;2023-04-15T07:23:24;14.60;;;10.68;;
23543;SDS011;11950;51.230;4.012;2023-04-15T07:25:50;13.10;;;10.98;;
23543;SDS011;11950;51.230;4.012;2023-04-15T07:28:17;13.25;;;11.10;;
23543;SDS011;11950;51.230;4.012;2023-04-15T07:30:43;13.70;;;10.88;;
23543;SDS011;11950;51.230;4.012;2023-04-15T07:33:10;13.82;;;10.95;;
23543;SDS011;11950;51.230;4.012;2023-04-15T07:35:36;13.63;;;10.10;;
23543;SDS011;11950;51.230;4.012;2023-04-15T07:38:02;14.63;;;10.65;;
23543;SDS011;11950;51.230;4.012;2023-04-15T07:40:29;18.75;;;10.77;;
23543;SDS011;11950;51.230;4.012;2023-04-15T07:42:55;14.55;;;10.52;;
23543;SDS011;11950;51.230;4.012;2023-04-15T07:45:23;11.00;;;9.80;;
23543;SDS011;11950;51.230;4.012;2023-04-15T07:47:49;13.40;;;9.82;;
23543;SDS011;11950;51.230;4.012;2023-04-15T07:50:16;14.07;;;9.68;;
23543;SDS011;11950;51.230;4.012;2023-04-15T07:52:42;15.07;;;10.10;;
23543;SDS011;11950;51.230;4.012;2023-04-15T07:55:09;14.15;;;9.85;;
23543;SDS011;11950;51.230;4.012;2023-04-15T07:57:36;13.23;;;10.00;;
23543;SDS011;11950;51.230;4.012;2023-04-15T08:00:02;12.65;;;10.02;;
23543;SDS011;11950;51.230;4.012;2023-04-15T08:02:38;11.05;;;9.88;;
23543;SDS011;11950;51.230;4.012;2023-04-15T08:05:05;11.23;;;9.30;;
23543;SDS011;11950;51.230;4.012;2023-04-15T08:07:32;13.88;;;9.10;;
23543;SDS011;11950;51.230;4.012;2023-04-15T08:09:58;10.98;;;9.13;;
23543;SDS011;11950;51.230;4.012;2023-04-15T08:12:24;10.98;;;8.63;;
23543;SDS011;11950;51.230;4.012;2023-04-15T08:14:50;12.95;;;9.05;;
23543;SDS011;11950;51.230;4.012;2023-04-15T08:17:17;12.73;;;8.52;;
23543;SDS011;11950;51.230;4.012;2023-04-15T08:19:43;11.70;;;9.05;;
23543;SDS011;11950;51.230;4.012;2023-04-15T08:22:09;12.30;;;8.85;;
23543;SDS011;11950;51.230;4.012;2023-04-15T08:24:36;12.23;;;8.68;;
23543;SDS011;11950;51.230;4.012;2023-04-15T08:27:03;13.48;;;8.98;;
23543;SDS011;11950;51.230;4.012;2023-04-15T08:29:30;12.35;;;9.10;;
23543;SDS011;11950;51.230;4.012;2023-04-15T08:31:58;13.75;;;9.23;;
23543;SDS011;11950;51.230;4.012;2023-04-15T08:34:26;12.50;;;9.30;;
23543;SDS011;11950;51.230;4.012;2023-04-15T08:36:53;12.32;;;9.40;;
23543;SDS011;11950;51.230;4.012;2023-04-15T08:39:19;10.88;;;9.00;;
23543;SDS011;11950;51.230;4.012;2023-04-15T08:41:46;12.35;;;9.07;;
23543;SDS011;11950;51.230;4.012;2023-04-15T08:44:16;11.88;;;9.60;;
23543;SDS011;11950;51.230;4.012;2023-04-15T08:46:43;11.23;;;9.63;;
23543;SDS011;11950;51.230;4.012;2023-04-15T08:49:10;12.27;;;9.73;;
23543;SDS011;11950;51.230;4.012;2023-04-15T08:51:38;10.43;;;9.25;;
23543;SDS011;11950;51.230;4.012;2023-04-15T08:54:05;14.23;;;9.50;;
23543;SDS011;11950;51.230;4.012;2023-04-15T08:56:35;11.82;;;9.23;;
23543;SDS011;11950;51.230;4.012;2023-04-15T08:59:02;12.27;;;8.57;;
23543;SDS011;11950;51.230;4.012;2023-04-15T09:01:30;9.23;;;7.63;;
23543;SDS011;11950;51.230;4.012;2023-04-15T09:03:57;8.70;;;6.68;;
23543;SDS011;11950;51.230;4.012;2023-04-15T09:06:24;9.07;;;7.32;;
23543;SDS011;11950;51.230;4.012;2023-04-15T09:08:50;8.82;;;6.97;;
23543;SDS011;11950;51.230;4.012;2023-04-15T09:11:17;10.80;;;6.82;;
23543;SDS011;11950;51.230;4.012;2023-04-15T09:13:44;8.85;;;5.80;;
23543;SDS011;11950;51.230;4.012;2023-04-15T09:16:12;7.47;;;5.85;;
23543;SDS011;11950;51.230;4.012;2023-04-15T09:18:38;7.03;;;5.72;;
23543;SDS011;11950;51.230;4.012;2023-04-15T09:21:06;9.52;;;5.22;;
23543;SDS011;11950;51.230;4.012;2023-04-15T09:26:05;7.63;;;5.07;;
23543;SDS011;11950;51.230;4.012;2023-04-15T09:28:31;6.13;;;4.97;;
23543;SDS011;11950;51.230;4.012;2023-04-15T09:30:58;5.63;;;3.85;;
23543;SDS011;11950;51.230;4.012;2023-04-15T09:33:26;6.10;;;4.60;;
23543;SDS011;11950;51.230;4.012;2023-04-15T09:35:57;4.85;;;3.60;;
23543;SDS011;11950;51.230;4.012;2023-04-15T09:38:28;6.38;;;3.88;;
23543;SDS011;11950;51.230;4.012;2023-04-15T09:40:54;5.57;;;3.80;;
23543;SDS011;11950;51.230;4.012;2023-04-15T09:43:20;5.68;;;3.50;;
23543;SDS011;11950;51.230;4.012;2023-04-15T09:45:56;5.50;;;3.95;;
23543;SDS011;11950;51.230;4.012;2023-04-15T09:48:23;5.20;;;3.92;;
23543;SDS011;11950;51.230;4.012;2023-04-15T09:50:56;3.92;;;3.13;;
23543;SDS011;11950;51.230;4.012;2023-04-15T09:53:24;3.70;;;2.55;;
23543;SDS011;11950;51.230;4.012;2023-04-15T09:55:54;6.30;;;2.92;;
23543;SDS011;11950;51.230;4.012;2023-04-15T09:58:26;4.82;;;2.80;;
23543;SDS011;11950;51.230;4.012;2023-04-15T10:00:53;6.25;;;3.55;;
23543;SDS011;11950;51.230;4.012;2023-04-15T10:03:24;4.15;;;3.85;;
23543;SDS011;11950;51.230;4.012;2023-04-15T10:05:53;6.70;;;4.30;;
23543;SDS011;11950;51.230;4.012;2023-04-15T10:08:31;3.45;;;3.13;;
23543;SDS011;11950;51.230;4.012;2023-04-15T10:11:02;5.35;;;3.35;;
23543;SDS011;11950;51.230;4.012;2023-04-15T10:13:29;4.22;;;3.25;;
23543;SDS011;11950;51.230;4.012;2023-04-15T10:18:37;3.53;;;2.45;;
23543;SDS011;11950;51.230;4.012;2023-04-15T10:21:07;2.50;;;2.05;;
23543;SDS011;11950;51.230;4.012;2023-04-15T10:23:34;4.15;;;2.80;;
23543;SDS011;11950;51.230;4.012;2023-04-15T10:26:01;7.05;;;3.55;;
23543;SDS011;11950;51.230;4.012;2023-04-15T10:28:29;2.95;;;2.63;;
23543;SDS011;11950;51.230;4.012;2023-04-15T10:30:55;3.40;;;2.40;;
23543;SDS011;11950;51.230;4.012;2023-04-15T10:33:22;8.50;;;3.33;;
23543;SDS011;11950;51.230;4.012;2023-04-15T10:35:50;3.55;;;3.25;;
23543;SDS011;11950;51.230;4.012;2023-04-15T10:38:35;4.20;;;2.95;;
23543;SDS011;11950;51.230;4.012;2023-04-15T10:44:00;3.75;;;2.50;;
23543;SDS011;11950;51.230;4.012;2023-04-15T10:51:52;2.83;;;2.60;;
23543;SDS011;11950;51.230;4.012;2023-04-15T10:57:05;3.60;;;2.78;;
23543;SDS011;11950;51.230;4.012;2023-04-15T10:59:37;5.80;;;3.47;;
23543;SDS011;11950;51.230;4.012;2023-04-15T11:02:40;5.88;;;3.15;;
23543;SDS011;11950;51.230;4.012;2023-04-15T11:05:13;4.05;;;3.25;;
23543;SDS011;11950;51.230;4.012;2023-04-15T11:07:53;4.22;;;3.40;;
23543;SDS011;11950;51.230;4.012;2023-04-15T11:12:56;3.45;;;3.17;;
23543;SDS011;11950;51.230;4.012;2023-04-15T11:18:26;6.30;;;4.10;;
23543;SDS011;11950;51.230;4.012;2023-04-15T11:20:56;4.72;;;3.67;;
23543;SDS011;11950;51.230;4.012;2023-04-15T11:23:29;5.28;;;3.80;;
23543;SDS011;11950;51.230;4.012;2023-04-15T11:25:59;5.03;;;4.28;;
23543;SDS011;11950;51.230;4.012;2023-04-15T11:28:27;5.18;;;4.28;;
23543;SDS011;11950;51.230;4.012;2023-04-15T11:30:55;6.15;;;3.97;;
23543;SDS011;11950;51.230;4.012;2023-04-15T11:33:22;5.57;;;3.80;;
23543;SDS011;11950;51.230;4.012;2023-04-15T11:35:50;6.80;;;3.70;;
23543;SDS011;11950;51.230;4.012;2023-04-15T11:38:21;4.32;;;3.75;;
23543;SDS011;11950;51.230;4.012;2023-04-15T11:40:47;4.93;;;4.35;;
23543;SDS011;11950;51.230;4.012;2023-04-15T11:43:16;4.90;;;4.40;;
23543;SDS011;11950;51.230;4.012;2023-04-15T11:45:51;5.30;;;4.05;;
23543;SDS011;11950;51.230;4.012;2023-04-15T11:48:23;6.32;;;3.97;;
23543;SDS011;11950;51.230;4.012;2023-04-15T11:50:54;4.65;;;4.18;;
23543;SDS011;11950;51.230;4.012;2023-04-15T11:53:22;5.95;;;4.22;;
23543;SDS011;11950;51.230;4.012;2023-04-15T11:55:50;5.72;;;4.55;;
23543;SDS011;11950;51.230;4.012;2023-04-15T11:58:21;8.18;;;4.43;;
23543;SDS011;11950;51.230;4.012;2023-04-15T12:00:54;5.30;;;3.55;;
23543;SDS011;11950;51.230;4.012;2023-04-15T12:03:25;5.72;;;4.40;;
23543;SDS011;11950;51.230;4.012;2023-04-15T12:11:26;4.20;;;3.45;;
23543;SDS011;11950;51.230;4.012;2023-04-15T12:13:56;3.75;;;3.05;;
23543;SDS011;11950;51.230;4.012;2023-04-15T12:16:24;4.43;;;2.92;;
23543;SDS011;11950;51.230;4.012;2023-04-15T12:18:53;5.35;;;3.42;;
23543;SDS011;11950;51.230;4.012;2023-04-15T12:21:22;4.80;;;3.35;;
23543;SDS011;11950;51.230;4.012;2023-04-15T12:23:50;3.15;;;2.65;;
23543;SDS011;11950;51.230;4.012;2023-04-15T12:26:33;5.47;;;2.47;;
23543;SDS011;11950;51.230;4.012;2023-04-15T12:29:10;3.53;;;2.90;;
23543;SDS011;11950;51.230;4.012;2023-04-15T12:31:47;4.47;;;2.80;;
23543;SDS011;11950;51.230;4.012;2023-04-15T12:34:17;3.35;;;2.80;;
23543;SDS011;11950;51.230;4.012;2023-04-15T12:36:50;3.60;;;3.05;;
23543;SDS011;11950;51.230;4.012;2023-04-15T12:39:17;3.38;;;2.70;;
23543;SDS011;11950;51.230;4.012;2023-04-15T12:41:46;2.78;;;2.30;;
23543;SDS011;11950;51.230;4.012;2023-04-15T12:44:12;5.05;;;2.47;;
23543;SDS011;11950;51.230;4.012;2023-04-15T12:46:38;5.28;;;2.20;;
23543;SDS011;11950;51.230;4.012;2023-04-15T12:49:06;6.50;;;2.40;;
23543;SDS011;11950;51.230;4.012;2023-04-15T12:51:32;3.35;;;2.30;;
23543;SDS011;11950;51.230;4.012;2023-04-15T12:53:58;2.58;;;1.63;;
23543;SDS011;11950;51.230;4.012;2023-04-15T12:56:25;3.15;;;2.20;;
23543;SDS011;11950;51.230;4.012;2023-04-15T12:58:51;3.00;;;2.10;;
23543;SDS011;11950;51.230;4.012;2023-04-15T13:01:18;4.05;;;1.80;;
23543;SDS011;11950;51.230;4.012;2023-04-15T13:03:44;1.85;;;1.60;;
23543;SDS011;11950;51.230;4.012;2023-04-15T13:06:10;2.78;;;1.20;;
23543;SDS011;11950;51.230;4.012;2023-04-15T13:08:37;2.03;;;1.10;;
23543;SDS011;11950;51.230;4.012;2023-04-15T13:11:03;2.63;;;1.10;;
23543;SDS011;11950;51.230;4.012;2023-04-15T13:13:29;2.42;;;1.42;;
23543;SDS011;11950;51.230;4.012;2023-04-15T13:15:56;2.83;;;1.23;;
23543;SDS011;11950;51.230;4.012;2023-04-15T13:18:23;3.33;;;1.50;;
23543;SDS011;11950;51.230;4.012;2023-04-15T13:20:49;3.03;;;1.35;;
23543;SDS011;11950;51.230;4.012;2023-04-15T13:23:16;2.28;;;1.50;;
23543;SDS011;11950;51.230;4.012;2023-04-15T13:25:42;2.20;;;1.40;;
23543;SDS011;11950;51.230;4.012;2023-04-15T13:28:10;2.33;;;1.45;;
23543;SDS011;11950;51.230;4.012;2023-04-15T13:30:37;2.92;;;1.67;;
23543;SDS011;11950;51.230;4.012;2023-04-15T13:33:04;3.40;;;1.92;;
23543;SDS011;11950;51.230;4.012;2023-04-15T13:35:33;3.13;;;2.10;;
23543;SDS011;11950;51.230;4.012;2023-04-15T13:38:00;3.55;;;2.00;;
23543;SDS011;11950;51.230;4.012;2023-04-15T13:40:26;3.55;;;2.50;;
23543;SDS011;11950;51.230;4.012;2023-04-15T13:42:52;6.38;;;3.78;;
23543;SDS011;11950;51.230;4.012;2023-04-15T13:45:19;5.53;;;4.38;;
23543;SDS011;11950;51.230;4.012;2023-04-15T13:47:45;7.43;;;4.35;;
23543;SDS011;11950;51.230;4.012;2023-04-15T13:50:11;7.07;;;4.68;;
23543;SDS011;11950;51.230;4.012;2023-04-15T13:52:38;6.18;;;4.57;;
23543;SDS011;11950;51.230;4.012;2023-04-15T13:55:04;6.00;;;4.40;;
23543;SDS011;11950;51.230;4.012;2023-04-15T13:57:31;4.28;;;3.80;;
23543;SDS011;11950;51.230;4.012;2023-04-15T13:59:57;6.35;;;4.00;;
23543;SDS011;11950;51.230;4.012;2023-04-15T14:02:24;8.93;;;5.07;;
23543;SDS011;11950;51.230;4.012;2023-04-15T14:04:50;5.47;;;4.03;;
23543;SDS011;11950;51.230;4.012;2023-04-15T14:07:16;7.22;;;3.53;;
23543;SDS011;11950;51.230;4.012;2023-04-15T14:09:43;6.65;;;3.47;;
23543;SDS011;11950;51.230;4.012;2023-04-15T14:12:09;6.68;;;4.07;;
23543;SDS011;11950;51.230;4.012;2023-04-15T14:14:35;4.80;;;3.85;;
23543;SDS011;11950;51.230;4.012;2023-04-15T14:17:02;5.68;;;3.65;;
23543;SDS011;11950;51.230;4.012;2023-04-15T14:19:29;4.47;;;3.22;;
23543;SDS011;11950;51.230;4.012;2023-04-15T14:21:56;4.88;;;3.78;;
23543;SDS011;11950;51.230;4.012;2023-04-15T14:24:22;5.00;;;3.55;;
23543;SDS011;11950;51.230;4.012;2023-04-15T14:26:49;5.22;;;4.00;;
23543;SDS011;11950;51.230;4.012;2023-04-15T14:29:15;5.32;;;3.25;;
23543;SDS011;11950;51.230;4.012;2023-04-15T14:31:41;6.47;;;3.47;;
23543;SDS011;11950;51.230;4.012;2023-04-15T14:34:09;5.95;;;3.80;;
23543;SDS011;11950;51.230;4.012;2023-04-15T14:36:36;4.32;;;3.67;;
23543;SDS011;11950;51.230;4.012;2023-04-15T14:39:02;4.43;;;3.15;;
23543;SDS011;11950;51.230;4.012;2023-04-15T14:41:29;6.25;;;3.17;;
23543;SDS011;11950;51.230;4.012;2023-04-15T14:43:55;5.07;;;3.75;;
23543;SDS011;11950;51.230;4.012;2023-04-15T14:46:21;5.70;;;2.88;;
23543;SDS011;11950;51.230;4.012;2023-04-15T14:48:48;5.18;;;2.67;;
23543;SDS011;11950;51.230;4.012;2023-04-15T14:51:14;5.72;;;2.55;;
23543;SDS011;11950;51.230;4.012;2023-04-15T14:53:40;5.50;;;2.60;;
23543;SDS011;11950;51.230;4.012;2023-04-15T14:56:07;7.40;;;2.90;;
23543;SDS011;11950;51.230;4.012;2023-04-15T14:58:33;3.88;;;2.33;;
23543;SDS011;11950;51.230;4.012;2023-04-15T15:01:00;3.15;;;2.08;;
23543;SDS011;11950;51.230;4.012;2023-04-15T15:03:27;3.70;;;2.70;;
23543;SDS011;11950;51.230;4.012;2023-04-15T15:05:54;2.80;;;1.90;;
23543;SDS011;11950;51.230;4.012;2023-04-15T15:08:22;3.65;;;1.73;;
23543;SDS011;11950;51.230;4.012;2023-04-15T15:10:48;3.08;;;1.80;;
23543;SDS011;11950;51.230;4.012;2023-04-15T15:13:14;3.03;;;1.52;;